Kumkoy, Turkey

10:06 AM +03 on February 22, 2017 (GMT +0300)
IU0130ST5 | | Change Station

Elev 390 ft 41.23 °N, 29.05 °E | Updated 6 minutes ago

Clear
Clear
47.4 °F
Feels Like 42 °F
N
12.0
Wind Variable Wind from SSW
Gusts 23.0 mph

Today
High -- | Low -- °F
--% Chance of Precip.
Yesterday
High -- | Low -- °F
Precip. -- in
Pressure 30.04 in
Visibility -9999.0 miles
Clouds
Windchill 42 °F
Dew Point 42 °F
Humidity 80%
Rainfall 0.00 in
Snow Depth Not available.
7:48 AM 6:46 PM
Waning Crescent, 19% visible
METAR LTBA 220650Z 24006KT 200V270 CAVOK 08/06 Q1017 NOSIG
Pressure 30.04 in
Visibility -9999.0 miles
Clouds
Windchill 42 °F
Dew Point 42 °F
Humidity 80%
Rainfall 0.00 in
Snow Depth Not available.
7:48 AM 6:46 PM
Waning Crescent, 19% visible
METAR LTBA 220650Z 24006KT 200V270 CAVOK 08/06 Q1017 NOSIG

Get Your Daily Forecast Email!

Thanks for signing up!

Be on the lookout for a verification email in your inbox.

You'll start receiving the daily forecast at 8 AM.

×

10-Day Weather Forecast

×

Almanac

Astronomy

Feb. 22, 2017 Rise Set
Actual Time
Civil Twilight
Nautical Twilight
Astronomical Twilight
Moon
Length of Visible Light
Length of Day
Tomorrow will be .
, % of the Moon is Illuminated

Today's Extremes

Country Highs Country Lows

Community

WunderPhotos

Upload Photos

1,962,540 photos uploaded!

WunderBlog® & News

Nearby

Air Quality

  Air Quality AQ Index Pollutant
Not available.

Snow Depth

Station Depth Elevation

Earthquake Activity

City Distance Mag. Time & Date
Minimum magnitude displayed is 2.5.

Coastal Water Temperatures

Place Temperature

Stations

Nearby Weather Stations

Station Location Temp. Windchill Dew Point Humidity Wind Precip. Elev Updated Type